sensor_id;sensor_type;location;lat;lon;timestamp;temperature;humidity
21425;DHT22;10873;51.132;16.848;2022-11-23T00:00:15;23.80;48.30
21425;DHT22;10873;51.132;16.848;2022-11-23T00:03:02;23.80;48.20
21425;DHT22;10873;51.132;16.848;2022-11-23T00:05:29;23.70;48.20
21425;DHT22;10873;51.132;16.848;2022-11-23T00:07:56;23.70;48.20
21425;DHT22;10873;51.132;16.848;2022-11-23T00:10:22;23.70;48.20
21425;DHT22;10873;51.132;16.848;2022-11-23T00:12:48;23.70;48.20
21425;DHT22;10873;51.132;16.848;2022-11-23T00:15:16;23.70;48.10
21425;DHT22;10873;51.132;16.848;2022-11-23T00:17:42;23.70;48.10
21425;DHT22;10873;51.132;16.848;2022-11-23T00:20:08;23.70;48.80
21425;DHT22;10873;51.132;16.848;2022-11-23T00:22:34;23.70;48.10
21425;DHT22;10873;51.132;16.848;2022-11-23T00:25:01;23.70;48.10
21425;DHT22;10873;51.132;16.848;2022-11-23T00:27:27;23.70;48.10
21425;DHT22;10873;51.132;16.848;2022-11-23T00:29:53;23.70;48.10
21425;DHT22;10873;51.132;16.848;2022-11-23T00:32:20;23.70;48.10
21425;DHT22;10873;51.132;16.848;2022-11-23T00:34:46;23.70;48.10
21425;DHT22;10873;51.132;16.848;2022-11-23T00:37:12;23.70;48.20
21425;DHT22;10873;51.132;16.848;2022-11-23T00:39:38;23.70;48.10
21425;DHT22;10873;51.132;16.848;2022-11-23T00:42:04;23.70;48.10
21425;DHT22;10873;51.132;16.848;2022-11-23T00:44:30;23.70;48.10
21425;DHT22;10873;51.132;16.848;2022-11-23T00:46:56;23.70;48.10
21425;DHT22;10873;51.132;16.848;2022-11-23T00:49:24;23.60;48.10
21425;DHT22;10873;51.132;16.848;2022-11-23T00:51:50;23.60;48.00
21425;DHT22;10873;51.132;16.848;2022-11-23T00:54:16;23.60;48.10
21425;DHT22;10873;51.132;16.848;2022-11-23T00:56:42;23.60;48.10
21425;DHT22;10873;51.132;16.848;2022-11-23T00:59:08;23.60;48.10
21425;DHT22;10873;51.132;16.848;2022-11-23T01:01:35;23.60;48.10
21425;DHT22;10873;51.132;16.848;2022-11-23T01:04:05;23.60;48.10
21425;DHT22;10873;51.132;16.848;2022-11-23T01:06:35;23.60;48.10
21425;DHT22;10873;51.132;16.848;2022-11-23T01:09:04;23.70;48.10
21425;DHT22;10873;51.132;16.848;2022-11-23T01:11:31;23.70;48.00
21425;DHT22;10873;51.132;16.848;2022-11-23T01:13:58;23.70;48.10
21425;DHT22;10873;51.132;16.848;2022-11-23T01:16:25;23.70;48.00
21425;DHT22;10873;51.132;16.848;2022-11-23T01:18:52;23.70;48.00
21425;DHT22;10873;51.132;16.848;2022-11-23T01:21:18;23.70;48.00
21425;DHT22;10873;51.132;16.848;2022-11-23T01:23:46;23.70;48.00
21425;DHT22;10873;51.132;16.848;2022-11-23T01:26:12;23.70;47.90
21425;DHT22;10873;51.132;16.848;2022-11-23T01:28:39;23.70;47.80
21425;DHT22;10873;51.132;16.848;2022-11-23T01:31:05;23.70;47.90
21425;DHT22;10873;51.132;16.848;2022-11-23T01:33:32;23.80;47.90
21425;DHT22;10873;51.132;16.848;2022-11-23T01:35:58;23.80;47.80
21425;DHT22;10873;51.132;16.848;2022-11-23T01:38:24;23.80;47.80
21425;DHT22;10873;51.132;16.848;2022-11-23T01:40:51;23.70;47.80
21425;DHT22;10873;51.132;16.848;2022-11-23T01:43:18;23.80;47.80
21425;DHT22;10873;51.132;16.848;2022-11-23T01:45:57;23.70;47.80
21425;DHT22;10873;51.132;16.848;2022-11-23T01:48:27;23.70;47.80
21425;DHT22;10873;51.132;16.848;2022-11-23T01:50:57;23.70;47.80
21425;DHT22;10873;51.132;16.848;2022-11-23T01:53:24;23.70;47.80
21425;DHT22;10873;51.132;16.848;2022-11-23T01:55:54;23.70;47.80
21425;DHT22;10873;51.132;16.848;2022-11-23T01:58:23;23.70;47.80
21425;DHT22;10873;51.132;16.848;2022-11-23T02:00:50;23.70;47.80
21425;DHT22;10873;51.132;16.848;2022-11-23T02:03:16;23.70;47.80
21425;DHT22;10873;51.132;16.848;2022-11-23T02:05:45;23.70;47.80
21425;DHT22;10873;51.132;16.848;2022-11-23T02:08:14;23.70;47.80
21425;DHT22;10873;51.132;16.848;2022-11-23T02:10:40;23.70;47.80
21425;DHT22;10873;51.132;16.848;2022-11-23T02:13:10;23.70;47.80
21425;DHT22;10873;51.132;16.848;2022-11-23T02:15:37;23.70;47.80
21425;DHT22;10873;51.132;16.848;2022-11-23T02:18:06;23.70;47.80
21425;DHT22;10873;51.132;16.848;2022-11-23T02:20:33;23.70;47.80
21425;DHT22;10873;51.132;16.848;2022-11-23T02:23:09;23.70;48.40
21425;DHT22;10873;51.132;16.848;2022-11-23T02:25:51;23.70;47.80
21425;DHT22;10873;51.132;16.848;2022-11-23T02:28:23;23.70;47.80
21425;DHT22;10873;51.132;16.848;2022-11-23T02:30:53;23.70;47.80
21425;DHT22;10873;51.132;16.848;2022-11-23T02:33:20;23.70;47.70
21425;DHT22;10873;51.132;16.848;2022-11-23T02:35:48;23.70;47.80
21425;DHT22;10873;51.132;16.848;2022-11-23T02:38:14;23.70;47.70
21425;DHT22;10873;51.132;16.848;2022-11-23T02:40:41;23.60;47.70
21425;DHT22;10873;51.132;16.848;2022-11-23T02:43:08;23.70;47.80
21425;DHT22;10873;51.132;16.848;2022-11-23T02:45:37;23.60;47.70
21425;DHT22;10873;51.132;16.848;2022-11-23T02:48:05;23.60;47.70
21425;DHT22;10873;51.132;16.848;2022-11-23T02:50:31;23.60;47.70
21425;DHT22;10873;51.132;16.848;2022-11-23T02:52:58;23.70;47.80
21425;DHT22;10873;51.132;16.848;2022-11-23T02:55:24;23.60;47.70
21425;DHT22;10873;51.132;16.848;2022-11-23T02:57:50;23.60;47.70
21425;DHT22;10873;51.132;16.848;2022-11-23T03:00:17;23.60;47.70
21425;DHT22;10873;51.132;16.848;2022-11-23T03:02:43;23.60;47.80
21425;DHT22;10873;51.132;16.848;2022-11-23T03:05:09;23.60;47.90
21425;DHT22;10873;51.132;16.848;2022-11-23T03:07:36;23.60;47.90
21425;DHT22;10873;51.132;16.848;2022-11-23T03:10:02;23.60;47.90
21425;DHT22;10873;51.132;16.848;2022-11-23T03:12:28;23.60;47.90
21425;DHT22;10873;51.132;16.848;2022-11-23T03:14:54;23.60;48.00
21425;DHT22;10873;51.132;16.848;2022-11-23T03:17:21;23.60;47.90
21425;DHT22;10873;51.132;16.848;2022-11-23T03:19:47;23.60;47.80
21425;DHT22;10873;51.132;16.848;2022-11-23T03:22:13;23.60;47.80
21425;DHT22;10873;51.132;16.848;2022-11-23T03:24:39;23.60;47.90
21425;DHT22;10873;51.132;16.848;2022-11-23T03:27:05;23.50;47.90
21425;DHT22;10873;51.132;16.848;2022-11-23T03:29:32;23.50;47.90
21425;DHT22;10873;51.132;16.848;2022-11-23T03:31:58;23.50;47.90
21425;DHT22;10873;51.132;16.848;2022-11-23T03:34:25;23.50;47.90
21425;DHT22;10873;51.132;16.848;2022-11-23T03:36:51;23.60;48.00
21425;DHT22;10873;51.132;16.848;2022-11-23T03:39:17;23.60;47.90
21425;DHT22;10873;51.132;16.848;2022-11-23T03:41:43;23.60;47.80
21425;DHT22;10873;51.132;16.848;2022-11-23T03:44:09;23.50;47.80
21425;DHT22;10873;51.132;16.848;2022-11-23T03:46:35;23.50;47.80
21425;DHT22;10873;51.132;16.848;2022-11-23T03:49:02;23.50;47.90
21425;DHT22;10873;51.132;16.848;2022-11-23T03:51:29;23.50;48.00
21425;DHT22;10873;51.132;16.848;2022-11-23T03:53:55;23.50;48.00
21425;DHT22;10873;51.132;16.848;2022-11-23T03:56:21;23.50;48.00
21425;DHT22;10873;51.132;16.848;2022-11-23T03:58:47;23.50;48.00
21425;DHT22;10873;51.132;16.848;2022-11-23T04:01:13;23.50;48.00
21425;DHT22;10873;51.132;16.848;2022-11-23T04:03:39;23.50;48.00
21425;DHT22;10873;51.132;16.848;2022-11-23T04:06:05;23.50;48.00
21425;DHT22;10873;51.132;16.848;2022-11-23T04:08:33;23.50;47.90
21425;DHT22;10873;51.132;16.848;2022-11-23T04:10:59;23.50;47.90
21425;DHT22;10873;51.132;16.848;2022-11-23T04:13:25;23.50;47.80
21425;DHT22;10873;51.132;16.848;2022-11-23T04:15:51;23.50;47.90
21425;DHT22;10873;51.132;16.848;2022-11-23T04:18:17;23.50;48.00
21425;DHT22;10873;51.132;16.848;2022-11-23T04:20:43;23.50;48.00
21425;DHT22;10873;51.132;16.848;2022-11-23T04:23:09;23.50;48.00
21425;DHT22;10873;51.132;16.848;2022-11-23T04:25:37;23.50;48.00
21425;DHT22;10873;51.132;16.848;2022-11-23T04:28:03;23.50;48.00
21425;DHT22;10873;51.132;16.848;2022-11-23T04:30:29;23.50;48.00
21425;DHT22;10873;51.132;16.848;2022-11-23T04:32:55;23.50;48.00
21425;DHT22;10873;51.132;16.848;2022-11-23T04:35:21;23.50;47.90
21425;DHT22;10873;51.132;16.848;2022-11-23T04:37:47;23.50;47.90
21425;DHT22;10873;51.132;16.848;2022-11-23T04:40:13;23.50;47.80
21425;DHT22;10873;51.132;16.848;2022-11-23T04:42:41;23.50;47.90
21425;DHT22;10873;51.132;16.848;2022-11-23T04:45:07;23.50;47.90
21425;DHT22;10873;51.132;16.848;2022-11-23T04:47:33;23.50;48.00
21425;DHT22;10873;51.132;16.848;2022-11-23T04:49:59;23.50;48.00
21425;DHT22;10873;51.132;16.848;2022-11-23T04:52:25;23.50;48.00
21425;DHT22;10873;51.132;16.848;2022-11-23T04:54:51;23.50;48.00
21425;DHT22;10873;51.132;16.848;2022-11-23T04:57:17;23.50;48.00
21425;DHT22;10873;51.132;16.848;2022-11-23T04:59:45;23.50;48.00
21425;DHT22;10873;51.132;16.848;2022-11-23T05:02:11;23.60;48.10
21425;DHT22;10873;51.132;16.848;2022-11-23T05:04:37;23.60;48.00
21425;DHT22;10873;51.132;16.848;2022-11-23T05:07:03;23.60;48.00
21425;DHT22;10873;51.132;16.848;2022-11-23T05:09:29;23.60;48.00
21425;DHT22;10873;51.132;16.848;2022-11-23T05:11:56;23.60;48.10
21425;DHT22;10873;51.132;16.848;2022-11-23T05:14:23;23.60;48.10
21425;DHT22;10873;51.132;16.848;2022-11-23T05:16:50;23.60;48.20
21425;DHT22;10873;51.132;16.848;2022-11-23T05:19:16;23.60;48.20
21425;DHT22;10873;51.132;16.848;2022-11-23T05:21:42;23.60;48.30
21425;DHT22;10873;51.132;16.848;2022-11-23T05:24:08;23.60;48.20
21425;DHT22;10873;51.132;16.848;2022-11-23T05:26:34;23.60;48.20
21425;DHT22;10873;51.132;16.848;2022-11-23T05:29:00;23.60;48.20
21425;DHT22;10873;51.132;16.848;2022-11-23T05:31:26;23.60;48.20
21425;DHT22;10873;51.132;16.848;2022-11-23T05:33:54;23.60;48.30
21425;DHT22;10873;51.132;16.848;2022-11-23T05:36:20;23.60;48.50
21425;DHT22;10873;51.132;16.848;2022-11-23T05:38:46;23.60;48.40
21425;DHT22;10873;51.132;16.848;2022-11-23T05:41:12;23.60;48.40
21425;DHT22;10873;51.132;16.848;2022-11-23T05:43:38;23.60;48.50
21425;DHT22;10873;51.132;16.848;2022-11-23T05:46:04;23.60;48.50
21425;DHT22;10873;51.132;16.848;2022-11-23T05:48:31;23.70;48.60
21425;DHT22;10873;51.132;16.848;2022-11-23T05:50:58;23.70;48.60
21425;DHT22;10873;51.132;16.848;2022-11-23T05:53:24;23.70;48.60
21425;DHT22;10873;51.132;16.848;2022-11-23T05:55:50;23.70;48.50
21425;DHT22;10873;51.132;16.848;2022-11-23T05:58:16;23.70;48.40
21425;DHT22;10873;51.132;16.848;2022-11-23T06:00:42;23.70;48.40
21425;DHT22;10873;51.132;16.848;2022-11-23T06:03:08;23.70;48.50
21425;DHT22;10873;51.132;16.848;2022-11-23T06:05:34;23.70;48.50
21425;DHT22;10873;51.132;16.848;2022-11-23T06:08:02;23.70;48.60
21425;DHT22;10873;51.132;16.848;2022-11-23T06:10:28;23.70;48.60
21425;DHT22;10873;51.132;16.848;2022-11-23T06:12:54;23.70;48.70
21425;DHT22;10873;51.132;16.848;2022-11-23T06:15:20;23.70;48.60
21425;DHT22;10873;51.132;16.848;2022-11-23T06:17:46;23.70;48.70
21425;DHT22;10873;51.132;16.848;2022-11-23T06:20:12;23.70;48.70
21425;DHT22;10873;51.132;16.848;2022-11-23T06:22:38;23.70;48.70
21425;DHT22;10873;51.132;16.848;2022-11-23T06:25:06;23.70;48.70
21425;DHT22;10873;51.132;16.848;2022-11-23T06:27:32;23.70;48.70
21425;DHT22;10873;51.132;16.848;2022-11-23T06:29:58;23.70;48.80
21425;DHT22;10873;51.132;16.848;2022-11-23T06:32:24;23.70;48.80
21425;DHT22;10873;51.132;16.848;2022-11-23T06:34:50;23.70;48.90
21425;DHT22;10873;51.132;16.848;2022-11-23T06:37:16;23.70;48.90
21425;DHT22;10873;51.132;16.848;2022-11-23T06:39:42;23.70;49.00
21425;DHT22;10873;51.132;16.848;2022-11-23T06:42:10;23.70;48.90
21425;DHT22;10873;51.132;16.848;2022-11-23T06:44:37;23.70;48.90
21425;DHT22;10873;51.132;16.848;2022-11-23T06:47:04;23.70;48.90
21425;DHT22;10873;51.132;16.848;2022-11-23T06:49:30;23.70;48.90
21425;DHT22;10873;51.132;16.848;2022-11-23T06:51:56;23.70;48.90
21425;DHT22;10873;51.132;16.848;2022-11-23T06:54:22;23.70;48.90
21425;DHT22;10873;51.132;16.848;2022-11-23T06:56:48;23.70;48.90
21425;DHT22;10873;51.132;16.848;2022-11-23T06:59:15;23.70;48.90
21425;DHT22;10873;51.132;16.848;2022-11-23T07:01:41;23.70;49.00
21425;DHT22;10873;51.132;16.848;2022-11-23T07:04:07;23.70;49.00
21425;DHT22;10873;51.132;16.848;2022-11-23T07:06:34;23.70;49.10
21425;DHT22;10873;51.132;16.848;2022-11-23T07:08:59;23.70;49.10
21425;DHT22;10873;51.132;16.848;2022-11-23T07:11:26;23.70;49.20
21425;DHT22;10873;51.132;16.848;2022-11-23T07:13:51;23.70;49.20
21425;DHT22;10873;51.132;16.848;2022-11-23T07:16:19;23.70;49.10
21425;DHT22;10873;51.132;16.848;2022-11-23T07:18:45;23.70;49.10
21425;DHT22;10873;51.132;16.848;2022-11-23T07:21:11;23.70;49.10
21425;DHT22;10873;51.132;16.848;2022-11-23T07:23:37;23.70;49.10
21425;DHT22;10873;51.132;16.848;2022-11-23T07:26:06;23.80;49.10
21425;DHT22;10873;51.132;16.848;2022-11-23T07:28:32;23.70;49.10
21425;DHT22;10873;51.132;16.848;2022-11-23T07:30:58;23.80;49.10
21425;DHT22;10873;51.132;16.848;2022-11-23T07:33:25;23.80;49.10
21425;DHT22;10873;51.132;16.848;2022-11-23T07:35:52;23.70;49.10
21425;DHT22;10873;51.132;16.848;2022-11-23T07:38:18;23.70;49.10
21425;DHT22;10873;51.132;16.848;2022-11-23T07:40:48;23.70;49.10
21425;DHT22;10873;51.132;16.848;2022-11-23T07:43:14;23.70;49.10
21425;DHT22;10873;51.132;16.848;2022-11-23T07:45:40;23.70;49.20
21425;DHT22;10873;51.132;16.848;2022-11-23T07:48:08;23.70;49.20
21425;DHT22;10873;51.132;16.848;2022-11-23T07:50:37;23.70;49.20
21425;DHT22;10873;51.132;16.848;2022-11-23T07:53:03;23.80;49.30
21425;DHT22;10873;51.132;16.848;2022-11-23T07:55:30;23.80;49.30
21425;DHT22;10873;51.132;16.848;2022-11-23T07:57:56;23.80;49.30
21425;DHT22;10873;51.132;16.848;2022-11-23T08:00:24;23.80;49.30
21425;DHT22;10873;51.132;16.848;2022-11-23T08:02:51;23.90;49.30
21425;DHT22;10873;51.132;16.848;2022-11-23T08:05:17;23.90;49.30
21425;DHT22;10873;51.132;16.848;2022-11-23T08:07:45;23.90;49.20
21425;DHT22;10873;51.132;16.848;2022-11-23T08:10:12;23.90;49.30
21425;DHT22;10873;51.132;16.848;2022-11-23T08:12:38;23.90;49.20
21425;DHT22;10873;51.132;16.848;2022-11-23T08:15:05;23.90;49.20
21425;DHT22;10873;51.132;16.848;2022-11-23T08:17:31;23.90;49.10
21425;DHT22;10873;51.132;16.848;2022-11-23T08:19:58;23.90;49.10
21425;DHT22;10873;51.132;16.848;2022-11-23T08:22:24;23.90;49.10
21425;DHT22;10873;51.132;16.848;2022-11-23T08:24:53;23.90;49.10
21425;DHT22;10873;51.132;16.848;2022-11-23T08:27:19;24.00;49.20
21425;DHT22;10873;51.132;16.848;2022-11-23T08:29:45;23.90;49.10
21425;DHT22;10873;51.132;16.848;2022-11-23T08:32:12;24.00;49.10
21425;DHT22;10873;51.132;16.848;2022-11-23T08:34:38;24.00;49.20
21425;DHT22;10873;51.132;16.848;2022-11-23T08:37:04;24.00;49.20
21425;DHT22;10873;51.132;16.848;2022-11-23T08:39:30;24.00;49.10
21425;DHT22;10873;51.132;16.848;2022-11-23T08:41:57;24.00;49.10
21425;DHT22;10873;51.132;16.848;2022-11-23T08:44:24;24.00;49.10
21425;DHT22;10873;51.132;16.848;2022-11-23T08:46:50;24.00;49.10
21425;DHT22;10873;51.132;16.848;2022-11-23T08:49:16;24.00;49.10
21425;DHT22;10873;51.132;16.848;2022-11-23T08:51:42;24.00;49.10
21425;DHT22;10873;51.132;16.848;2022-11-23T08:54:08;24.00;49.10
21425;DHT22;10873;51.132;16.848;2022-11-23T08:56:34;24.00;49.10
21425;DHT22;10873;51.132;16.848;2022-11-23T08:59:02;24.00;49.10
21425;DHT22;10873;51.132;16.848;2022-11-23T09:01:28;24.00;49.10
21425;DHT22;10873;51.132;16.848;2022-11-23T09:03:54;24.00;49.10
21425;DHT22;10873;51.132;16.848;2022-11-23T09:06:20;24.00;49.10
21425;DHT22;10873;51.132;16.848;2022-11-23T09:08:52;24.00;49.10
21425;DHT22;10873;51.132;16.848;2022-11-23T09:11:17;24.00;49.10
21425;DHT22;10873;51.132;16.848;2022-11-23T09:13:44;24.00;49.00
21425;DHT22;10873;51.132;16.848;2022-11-23T09:16:11;24.00;49.00
21425;DHT22;10873;51.132;16.848;2022-11-23T09:18:37;24.00;49.00
21425;DHT22;10873;51.132;16.848;2022-11-23T09:21:04;24.00;49.00
21425;DHT22;10873;51.132;16.848;2022-11-23T09:23:31;24.00;49.00
21425;DHT22;10873;51.132;16.848;2022-11-23T09:25:57;24.00;49.00
21425;DHT22;10873;51.132;16.848;2022-11-23T09:28:24;23.90;49.00
21425;DHT22;10873;51.132;16.848;2022-11-23T09:30:52;24.00;49.00
21425;DHT22;10873;51.132;16.848;2022-11-23T09:33:20;24.00;49.10
21425;DHT22;10873;51.132;16.848;2022-11-23T09:35:46;24.00;49.10
21425;DHT22;10873;51.132;16.848;2022-11-23T09:38:12;24.00;49.10
21425;DHT22;10873;51.132;16.848;2022-11-23T09:40:39;23.90;49.00
21425;DHT22;10873;51.132;16.848;2022-11-23T09:43:16;24.00;49.20
21425;DHT22;10873;51.132;16.848;2022-11-23T09:45:50;24.00;49.20
21425;DHT22;10873;51.132;16.848;2022-11-23T09:48:28;24.00;49.20
21425;DHT22;10873;51.132;16.848;2022-11-23T09:51:00;24.00;49.20
21425;DHT22;10873;51.132;16.848;2022-11-23T09:53:34;23.90;49.20
21425;DHT22;10873;51.132;16.848;2022-11-23T09:56:01;24.00;49.20
21425;DHT22;10873;51.132;16.848;2022-11-23T09:58:31;24.00;49.20
21425;DHT22;10873;51.132;16.848;2022-11-23T10:01:00;24.00;49.20
21425;DHT22;10873;51.132;16.848;2022-11-23T10:03:33;23.90;49.20
21425;DHT22;10873;51.132;16.848;2022-11-23T10:06:04;24.00;49.30
21425;DHT22;10873;51.132;16.848;2022-11-23T10:08:39;24.00;49.30
21425;DHT22;10873;51.132;16.848;2022-11-23T10:11:23;24.00;49.30
21425;DHT22;10873;51.132;16.848;2022-11-23T10:13:56;24.00;49.20
21425;DHT22;10873;51.132;16.848;2022-11-23T10:16:32;24.00;49.20
21425;DHT22;10873;51.132;16.848;2022-11-23T10:19:10;24.00;49.20
21425;DHT22;10873;51.132;16.848;2022-11-23T10:21:42;24.10;49.20
21425;DHT22;10873;51.132;16.848;2022-11-23T10:24:14;24.10;49.20
21425;DHT22;10873;51.132;16.848;2022-11-23T10:26:45;24.10;49.10
21425;DHT22;10873;51.132;16.848;2022-11-23T10:29:16;24.10;49.10
21425;DHT22;10873;51.132;16.848;2022-11-23T10:31:47;24.10;49.10
21425;DHT22;10873;51.132;16.848;2022-11-23T10:34:18;24.10;49.10
21425;DHT22;10873;51.132;16.848;2022-11-23T10:36:48;24.10;49.10
21425;DHT22;10873;51.132;16.848;2022-11-23T10:39:20;24.10;49.10
21425;DHT22;10873;51.132;16.848;2022-11-23T10:41:48;24.10;49.00
21425;DHT22;10873;51.132;16.848;2022-11-23T10:44:27;24.10;49.00
21425;DHT22;10873;51.132;16.848;2022-11-23T10:46:55;24.10;49.00
21425;DHT22;10873;51.132;16.848;2022-11-23T10:49:24;24.10;49.00
21425;DHT22;10873;51.132;16.848;2022-11-23T10:51:53;24.10;49.10
21425;DHT22;10873;51.132;16.848;2022-11-23T10:54:23;24.10;49.10
21425;DHT22;10873;51.132;16.848;2022-11-23T10:56:51;24.10;49.10
21425;DHT22;10873;51.132;16.848;2022-11-23T10:59:26;24.10;49.10
21425;DHT22;10873;51.132;16.848;2022-11-23T11:02:02;24.10;49.20
21425;DHT22;10873;51.132;16.848;2022-11-23T11:04:37;24.10;49.10
21425;DHT22;10873;51.132;16.848;2022-11-23T11:07:25;24.10;49.10
21425;DHT22;10873;51.132;16.848;2022-11-23T11:09:54;24.10;49.10
21425;DHT22;10873;51.132;16.848;2022-11-23T11:12:21;24.10;49.10
21425;DHT22;10873;51.132;16.848;2022-11-23T11:15:02;24.10;49.10
21425;DHT22;10873;51.132;16.848;2022-11-23T11:17:31;24.10;49.20
21425;DHT22;10873;51.132;16.848;2022-11-23T11:19:59;24.10;49.20
21425;DHT22;10873;51.132;16.848;2022-11-23T11:22:31;24.10;49.30
21425;DHT22;10873;51.132;16.848;2022-11-23T11:24:58;24.10;49.30
21425;DHT22;10873;51.132;16.848;2022-11-23T11:27:27;24.10;49.40
21425;DHT22;10873;51.132;16.848;2022-11-23T11:29:54;24.10;49.50
21425;DHT22;10873;51.132;16.848;2022-11-23T11:32:28;24.10;49.50
21425;DHT22;10873;51.132;16.848;2022-11-23T11:35:02;24.00;49.50
21425;DHT22;10873;51.132;16.848;2022-11-23T11:37:35;24.00;49.50
21425;DHT22;10873;51.132;16.848;2022-11-23T11:40:06;24.00;49.60
21425;DHT22;10873;51.132;16.848;2022-11-23T11:42:39;24.10;49.70
21425;DHT22;10873;51.132;16.848;2022-11-23T11:45:13;24.00;49.60
21425;DHT22;10873;51.132;16.848;2022-11-23T11:47:44;24.00;49.70
21425;DHT22;10873;51.132;16.848;2022-11-23T11:50:20;24.00;49.70
21425;DHT22;10873;51.132;16.848;2022-11-23T11:52:49;24.00;49.70
21425;DHT22;10873;51.132;16.848;2022-11-23T11:55:20;24.00;49.70
21425;DHT22;10873;51.132;16.848;2022-11-23T11:57:50;24.00;49.80
21425;DHT22;10873;51.132;16.848;2022-11-23T12:00:18;24.00;49.80
21425;DHT22;10873;51.132;16.848;2022-11-23T12:02:54;24.00;49.80
21425;DHT22;10873;51.132;16.848;2022-11-23T12:05:31;24.00;49.80
21425;DHT22;10873;51.132;16.848;2022-11-23T12:08:05;24.00;49.90
21425;DHT22;10873;51.132;16.848;2022-11-23T12:10:39;24.00;49.90
21425;DHT22;10873;51.132;16.848;2022-11-23T12:13:09;24.00;50.00
21425;DHT22;10873;51.132;16.848;2022-11-23T12:15:39;24.00;50.00
21425;DHT22;10873;51.132;16.848;2022-11-23T12:21:02;24.00;50.00
21425;DHT22;10873;51.132;16.848;2022-11-23T12:23:37;24.00;50.00
21425;DHT22;10873;51.132;16.848;2022-11-23T12:26:16;24.00;50.10
21425;DHT22;10873;51.132;16.848;2022-11-23T12:29:00;24.10;50.20
21425;DHT22;10873;51.132;16.848;2022-11-23T12:31:38;24.10;50.20
21425;DHT22;10873;51.132;16.848;2022-11-23T12:34:13;24.10;50.50
21425;DHT22;10873;51.132;16.848;2022-11-23T12:37:03;24.10;50.20
21425;DHT22;10873;51.132;16.848;2022-11-23T12:39:47;24.10;50.10
21425;DHT22;10873;51.132;16.848;2022-11-23T12:42:24;24.20;50.10
21425;DHT22;10873;51.132;16.848;2022-11-23T12:47:49;24.20;50.10
21425;DHT22;10873;51.132;16.848;2022-11-23T12:50:20;24.20;50.10
21425;DHT22;10873;51.132;16.848;2022-11-23T12:53:02;24.20;50.00
21425;DHT22;10873;51.132;16.848;2022-11-23T12:55:36;24.20;49.90
21425;DHT22;10873;51.132;16.848;2022-11-23T12:58:09;24.20;49.90
21425;DHT22;10873;51.132;16.848;2022-11-23T13:00:41;24.20;49.90
21425;DHT22;10873;51.132;16.848;2022-11-23T13:03:39;24.20;49.80
21425;DHT22;10873;51.132;16.848;2022-11-23T13:09:39;24.20;49.80
21425;DHT22;10873;51.132;16.848;2022-11-23T13:12:15;24.20;49.80
21425;DHT22;10873;51.132;16.848;2022-11-23T13:14:53;24.20;49.80
21425;DHT22;10873;51.132;16.848;2022-11-23T13:17:31;24.20;49.80
21425;DHT22;10873;51.132;16.848;2022-11-23T13:20:11;24.20;49.80
21425;DHT22;10873;51.132;16.848;2022-11-23T13:22:40;24.20;49.80
21425;DHT22;10873;51.132;16.848;2022-11-23T13:25:20;24.20;49.80
21425;DHT22;10873;51.132;16.848;2022-11-23T13:27:58;24.20;49.80
21425;DHT22;10873;51.132;16.848;2022-11-23T13:30:30;24.20;49.80
21425;DHT22;10873;51.132;16.848;2022-11-23T13:32:59;24.20;49.80
21425;DHT22;10873;51.132;16.848;2022-11-23T13:35:48;24.10;49.70
21425;DHT22;10873;51.132;16.848;2022-11-23T13:38:37;24.10;49.70
21425;DHT22;10873;51.132;16.848;2022-11-23T13:44:23;24.10;49.70
21425;DHT22;10873;51.132;16.848;2022-11-23T13:47:01;24.10;49.70
21425;DHT22;10873;51.132;16.848;2022-11-23T13:49:30;24.10;49.70
21425;DHT22;10873;51.132;16.848;2022-11-23T13:52:05;24.10;49.70
21425;DHT22;10873;51.132;16.848;2022-11-23T13:54:31;24.10;49.70
21425;DHT22;10873;51.132;16.848;2022-11-23T13:57:00;24.10;49.70
21425;DHT22;10873;51.132;16.848;2022-11-23T13:59:30;24.10;50.30
21425;DHT22;10873;51.132;16.848;2022-11-23T14:02:01;24.10;49.60
21425;DHT22;10873;51.132;16.848;2022-11-23T14:04:29;24.10;49.70
21425;DHT22;10873;51.132;16.848;2022-11-23T14:06:57;24.10;49.60
21425;DHT22;10873;51.132;16.848;2022-11-23T14:09:29;24.10;49.60
21425;DHT22;10873;51.132;16.848;2022-11-23T14:12:02;24.10;49.60
21425;DHT22;10873;51.132;16.848;2022-11-23T14:14:42;24.10;49.60
21425;DHT22;10873;51.132;16.848;2022-11-23T14:20:27;24.20;49.40
21425;DHT22;10873;51.132;16.848;2022-11-23T14:23:19;24.20;49.20
21425;DHT22;10873;51.132;16.848;2022-11-23T14:25:56;24.30;49.20
21425;DHT22;10873;51.132;16.848;2022-11-23T14:28:38;24.30;49.20
21425;DHT22;10873;51.132;16.848;2022-11-23T14:31:20;24.40;49.10
21425;DHT22;10873;51.132;16.848;2022-11-23T14:33:53;24.50;49.10
21425;DHT22;10873;51.132;16.848;2022-11-23T14:36:28;24.50;49.00
21425;DHT22;10873;51.132;16.848;2022-11-23T14:41:49;24.60;48.90
21425;DHT22;10873;51.132;16.848;2022-11-23T14:44:24;24.70;48.80
21425;DHT22;10873;51.132;16.848;2022-11-23T14:47:00;24.80;48.90
21425;DHT22;10873;51.132;16.848;2022-11-23T14:49:26;24.80;48.90
21425;DHT22;10873;51.132;16.848;2022-11-23T14:51:53;24.80;48.80
21425;DHT22;10873;51.132;16.848;2022-11-23T14:54:19;24.80;48.80
21425;DHT22;10873;51.132;16.848;2022-11-23T14:56:46;24.90;48.80
21425;DHT22;10873;51.132;16.848;2022-11-23T14:59:18;24.90;48.80
21425;DHT22;10873;51.132;16.848;2022-11-23T15:01:47;24.90;48.70
21425;DHT22;10873;51.132;16.848;2022-11-23T15:04:23;25.00;48.60
21425;DHT22;10873;51.132;16.848;2022-11-23T15:06:52;25.00;48.40
21425;DHT22;10873;51.132;16.848;2022-11-23T15:09:31;25.00;48.20
21425;DHT22;10873;51.132;16.848;2022-11-23T15:12:05;25.00;48.20
21425;DHT22;10873;51.132;16.848;2022-11-23T15:14:32;25.00;48.50
21425;DHT22;10873;51.132;16.848;2022-11-23T15:17:12;25.00;48.50
21425;DHT22;10873;51.132;16.848;2022-11-23T15:19:40;25.00;48.50
21425;DHT22;10873;51.132;16.848;2022-11-23T15:22:13;25.00;48.50
21425;DHT22;10873;51.132;16.848;2022-11-23T15:24:39;25.00;48.50
21425;DHT22;10873;51.132;16.848;2022-11-23T15:27:05;25.00;48.60
21425;DHT22;10873;51.132;16.848;2022-11-23T15:29:32;24.90;48.70
21425;DHT22;10873;51.132;16.848;2022-11-23T15:31:59;24.90;47.80
21425;DHT22;10873;51.132;16.848;2022-11-23T15:34:25;24.90;48.30
21425;DHT22;10873;51.132;16.848;2022-11-23T15:36:54;24.80;48.60
21425;DHT22;10873;51.132;16.848;2022-11-23T15:39:22;24.80;48.70
21425;DHT22;10873;51.132;16.848;2022-11-23T15:41:50;24.80;48.70
21425;DHT22;10873;51.132;16.848;2022-11-23T15:44:22;24.80;48.90